Time;durP1;ratioP1;P1;durP2;ratioP2;P2;SDS_P1;SDS_P2;PMS_P1;PMS_P2;Temp;Humidity;BMP_temperature;BMP_pressure;BME280_temperature;BME280_humidity;BME280_pressure;Samples;Min_cycle;Max_cycle;Signal;HPM_P1;HPM_P2
2023/10/03 00:01:01;;;;;;;53.78;30.27;;;;;;;;;;4976332;28;20054;-82
2023/10/03 00:03:28;;;;;;;52.80;31.25;;;;;;;;;;4976670;28;20058;-79
2023/10/03 00:05:55;;;;;;;56.08;29.73;;;;;;;;;;4975990;28;20149;-77
2023/10/03 00:08:22;;;;;;;53.63;28.98;;;;;;;;;;4974930;28;20061;-79
2023/10/03 00:10:49;;;;;;;54.80;28.98;;;;;;;;;;4975603;28;20066;-77
2023/10/03 00:13:17;;;;;;;55.42;30.02;;;;;;;;;;4975475;28;20092;-78
2023/10/03 00:15:44;;;;;;;58.28;30.83;;;;;;;;;;4991757;28;20062;-80
2023/10/03 00:18:11;;;;;;;57.47;29.45;;;;;;;;;;4992530;28;20124;-81
2023/10/03 00:20:37;;;;;;;54.72;29.13;;;;;;;;;;4976711;28;20054;-76
2023/10/03 00:23:04;;;;;;;56.92;30.13;;;;;;;;;;4976454;28;20058;-78
2023/10/03 00:25:30;;;;;;;55.88;30.00;;;;;;;;;;4976799;28;20088;-80
2023/10/03 00:27:59;;;;;;;57.30;28.85;;;16.40;99.90;;;;;;4976781;28;20057;-81
2023/10/03 00:30:26;;;;;;;58.40;31.30;;;16.40;99.90;;;;;;4976490;28;20058;-76
2023/10/03 00:32:53;;;;;;;52.25;29.35;;;16.30;99.90;;;;;;4975886;28;20133;-78
2023/10/03 00:35:22;;;;;;;50.95;28.42;;;16.30;99.90;;;;;;4977379;28;20057;-80
2023/10/03 00:37:52;;;;;;;59.90;30.10;;;16.40;99.90;;;;;;4976218;28;20050;-81
2023/10/03 00:42:54;;;;;;;58.17;29.67;;;16.30;99.90;;;;;;4976742;28;20054;-80
2023/10/03 00:45:21;;;;;;;50.85;27.52;;;;;;;;;;4976721;28;20663;-78
2023/10/03 00:47:51;;;;;;;58.05;29.35;;;16.30;99.90;;;;;;4976407;28;20054;-79
2023/10/03 00:50:23;;;;;;;55.47;28.95;;;;;;;;;;4976823;28;20623;-76
2023/10/03 00:53:04;;;;;;;56.80;29.90;;;16.40;99.90;;;;;;4975619;28;20842;-76
2023/10/03 00:55:32;;;;;;;47.22;26.52;;;16.40;99.90;;;;;;4976947;28;20133;-78
2023/10/03 00:58:28;;;;;;;49.47;26.77;;;16.40;99.90;;;;;;4969866;28;20816;-80
2023/10/03 01:00:53;;;;;;;48.75;27.35;;;16.40;99.90;;;;;;4974087;28;20062;-80
2023/10/03 01:03:30;;;;;;;49.58;26.25;;;16.40;99.90;;;;;;4975176;28;20054;-81
2023/10/03 01:06:10;;;;;;;49.10;26.92;;;16.40;99.90;;;;;;4990950;28;20112;-76
2023/10/03 01:08:47;;;;;;;47.83;26.15;;;16.20;99.90;;;;;;4974239;28;20104;-82
2023/10/03 01:11:15;;;;;;;52.00;27.52;;;16.40;99.90;;;;;;4974448;28;20094;-81
2023/10/03 01:14:00;;;;;;;47.03;26.65;;;16.30;99.90;;;;;;4974563;28;20059;-81
2023/10/03 01:16:31;;;;;;;48.92;26.55;;;16.30;99.90;;;;;;4975885;28;20058;-80
2023/10/03 01:21:45;;;;;;;44.63;25.95;;;;;;;;;;4975546;28;20428;-78
2023/10/03 01:24:20;;;;;;;46.30;25.30;;;;;;;;;;4992774;28;20728;-79
2023/10/03 01:26:46;;;;;;;46.67;25.33;;;;;;;;;;4992326;28;20061;-82
2023/10/03 01:29:12;;;;;;;46.95;24.38;;;;;;;;;;4975526;28;20724;-81
2023/10/03 01:31:42;;;;;;;38.13;21.77;;;16.30;99.90;;;;;;4975520;28;20045;-82
2023/10/03 01:34:08;;;;;;;45.30;22.70;;;;;;;;;;4975755;28;20051;-76
2023/10/03 01:36:34;;;;;;;44.28;23.30;;;;;;;;;;4975821;28;20128;-81
2023/10/03 01:39:00;;;;;;;40.88;22.98;;;;;;;;;;4975348;28;20050;-79
2023/10/03 01:41:26;;;;;;;44.47;22.70;;;;;;;;;;4975900;28;20129;-78
2023/10/03 01:43:52;;;;;;;42.70;22.50;;;;;;;;;;4975760;28;20085;-78
2023/10/03 01:46:18;;;;;;;41.25;21.90;;;;;;;;;;4979769;28;20128;-81
2023/10/03 01:48:45;;;;;;;40.33;22.55;;;;;;;;;;4975069;28;20081;-84
2023/10/03 01:51:11;;;;;;;40.28;21.73;;;;;;;;;;4975288;28;20061;-79
2023/10/03 01:53:38;;;;;;;41.17;21.50;;;;;;;;;;4974307;28;20105;-81
2023/10/03 01:56:06;;;;;;;47.78;21.80;;;;;;;;;;4972808;28;20613;-76
2023/10/03 01:58:34;;;;;;;40.75;22.48;;;;;;;;;;4973075;28;20057;-81
2023/10/03 02:01:00;;;;;;;40.83;22.23;;;;;;;;;;4989192;28;20054;-78
2023/10/03 02:03:29;;;;;;;39.85;20.00;;;;;;;;;;4989131;28;20105;-77
2023/10/03 02:05:55;;;;;;;41.83;22.35;;;;;;;;;;4974001;28;20791;-78
2023/10/03 02:08:23;;;;;;;40.55;20.73;;;;;;;;;;4973319;28;20137;-79
2023/10/03 02:10:50;;;;;;;37.58;20.58;;;16.20;99.90;;;;;;4991521;28;20065;-81
2023/10/03 02:13:18;;;;;;;38.10;21.23;;;16.20;99.90;;;;;;4974684;28;20050;-79
2023/10/03 02:15:45;;;;;;;38.45;20.23;;;16.20;99.90;;;;;;4974776;28;20050;-79
2023/10/03 02:18:19;;;;;;;36.55;20.67;;;16.20;99.90;;;;;;4990953;28;20046;-79
2023/10/03 02:20:52;;;;;;;39.75;22.45;;;16.20;99.90;;;;;;4974681;28;20054;-79
2023/10/03 02:23:19;;;;;;;37.40;20.17;;;;;;;;;;4974753;28;20054;-77
2023/10/03 02:25:46;;;;;;;39.63;20.40;;;16.20;99.90;;;;;;4974720;28;20050;-74
2023/10/03 02:28:14;;;;;;;36.45;19.23;;;;;;;;;;4974729;28;20677;-77
2023/10/03 02:30:40;;;;;;;38.78;20.38;;;;;;;;;;4968994;28;20062;-76
2023/10/03 02:33:13;;;;;;;36.58;19.90;;;;;;;;;;4991370;28;20133;-79
2023/10/03 02:35:40;;;;;;;38.08;20.45;;;16.30;99.90;;;;;;4989770;28;20050;-80
2023/10/03 02:38:10;;;;;;;38.30;20.33;;;;;;;;;;4974470;28;20149;-73
2023/10/03 02:40:36;;;;;;;37.90;20.60;;;;;;;;;;4974527;28;20062;-73
2023/10/03 02:43:04;;;;;;;37.63;20.17;;;;;;;;;;4974055;28;20086;-77
2023/10/03 02:45:31;;;;;;;37.05;19.90;;;;;;;;;;4974178;28;20057;-75
2023/10/03 02:48:01;;;;;;;36.35;20.70;;;;;;;;;;4973051;28;20058;-81
2023/10/03 02:50:28;;;;;;;40.88;19.65;;;;;;;;;;4974102;28;20050;-75
2023/10/03 02:52:59;;;;;;;38.78;19.33;;;;;;;;;;4989893;28;20572;-80
2023/10/03 02:55:25;;;;;;;39.92;19.85;;;;;;;;;;4974147;28;20058;-74
2023/10/03 02:57:51;;;;;;;38.45;19.45;;;;;;;;;;4973616;28;20775;-80
2023/10/03 03:00:18;;;;;;;35.83;18.30;;;;;;;;;;4973932;28;20050;-81
2023/10/03 03:02:49;;;;;;;36.25;18.75;;;16.30;99.90;;;;;;4973220;28;20168;-75
2023/10/03 03:05:16;;;;;;;36.25;18.95;;;16.30;99.90;;;;;;4973963;28;20497;-79
2023/10/03 03:07:46;;;;;;;35.30;20.02;;;16.20;99.90;;;;;;4973100;28;20059;-83
2023/10/03 03:10:17;;;;;;;39.67;18.80;;;16.30;99.90;;;;;;4989667;28;20066;-76
2023/10/03 03:12:47;;;;;;;38.00;18.10;;;16.30;99.90;;;;;;4973538;28;20124;-77
2023/10/03 03:15:27;;;;;;;37.10;18.27;;;16.30;99.90;;;;;;4973803;28;20141;-77
2023/10/03 03:17:53;;;;;;;37.72;19.52;;;;;;;;;;4977841;28;20054;-77
2023/10/03 03:20:25;;;;;;;43.33;19.42;;;16.30;99.90;;;;;;4977931;28;20448;-79
2023/10/03 03:22:51;;;;;;;;;;;12.60;99.90;;;;;;4995082;28;20112;-83
2023/10/03 03:28:12;;;;;;;35.67;18.30;;;;;;;;;;4978293;28;20636;-77
2023/10/03 03:30:45;;;;;;;41.35;19.98;;;16.30;99.90;;;;;;4977940;28;20046;-77
2023/10/03 03:33:19;;;;;;;38.83;18.17;;;16.20;99.90;;;;;;4961770;28;20053;-77
2023/10/03 03:35:46;;;;;;;36.85;19.50;;;;;;;;;;4978324;28;20076;-78
2023/10/03 03:38:18;;;;;;;35.17;17.95;;;;;;;;;;4979391;28;20758;-74
2023/10/03 03:40:53;;;;;;;42.03;19.42;;;16.30;99.90;;;;;;4977869;28;20068;-77
2023/10/03 03:43:21;;;;;;;38.40;18.63;;;;;;;;;;4977248;28;20085;-77
2023/10/03 03:45:48;;;;;;;38.60;18.83;;;;;;;;;;4977499;28;20180;-76
2023/10/03 03:48:14;;;;;;;39.53;17.35;;;;;;;;;;4976467;28;20107;-77
2023/10/03 03:50:40;;;;;;;31.95;16.88;;;;;;;;;;4976447;28;20046;-79
2023/10/03 03:53:07;;;;;;;36.63;19.08;;;;;;;;;;4975636;28;20062;-78
2023/10/03 03:55:34;;;;;;;36.20;17.63;;;16.30;99.90;;;;;;4976300;28;20081;-77
2023/10/03 03:58:05;;;;;;;38.20;19.77;;;;;;;;;;4976554;28;20046;-79
2023/10/03 04:00:32;;;;;;;36.78;18.67;;;;;;;;;;4976247;28;20476;-78
2023/10/03 04:03:11;;;;;;;38.67;18.70;;;16.30;99.90;;;;;;4993239;28;20058;-77
2023/10/03 04:05:37;;;;;;;35.53;18.42;;;;;;;;;;4978021;28;20088;-77
2023/10/03 04:08:04;;;;;;;36.58;18.15;;;16.20;99.90;;;;;;4976728;28;20069;-77
2023/10/03 04:10:30;;;;;;;37.35;16.70;;;;;;;;;;4977010;28;20054;-77
2023/10/03 04:12:56;;;;;;;33.75;18.10;;;;;;;;;;4976904;28;20042;-79
2023/10/03 04:15:23;;;;;;;35.78;19.50;;;;;;;;;;4976968;28;20188;-75
2023/10/03 04:17:49;;;;;;;34.15;16.10;;;;;;;;;;4993798;28;20058;-72
2023/10/03 04:20:20;;;;;;;34.22;18.85;;;;;;;;;;4977529;28;20050;-75
2023/10/03 04:22:48;;;;;;;37.53;16.93;;;16.20;99.90;;;;;;4993097;28;20168;-76
2023/10/03 04:25:14;;;;;;;35.92;17.20;;;16.20;99.90;;;;;;4976663;28;20062;-74
2023/10/03 04:27:41;;;;;;;33.55;17.95;;;;;;;;;;4974900;28;20783;-78
2023/10/03 04:30:13;;;;;;;33.88;17.13;;;16.20;99.90;;;;;;4976451;28;20050;-76
2023/10/03 04:32:42;;;;;;;36.92;17.83;;;16.20;99.90;;;;;;4976208;28;20046;-72
2023/10/03 04:35:13;;;;;;;34.90;17.15;;;16.20;99.90;;;;;;4976173;28;20152;-75
2023/10/03 04:37:41;;;;;;;39.78;18.48;;;;;;;;;;4976071;28;20097;-76
2023/10/03 04:40:09;;;;;;;33.78;17.30;;;;;;;;;;4976167;28;20128;-77
2023/10/03 04:42:35;;;;;;;34.67;16.73;;;;;;;;;;4975649;28;20149;-75
2023/10/03 04:45:05;;;;;;;31.67;16.10;;;;;;;;;;4976071;28;20050;-75
2023/10/03 04:47:32;;;;;;;35.17;17.23;;;;;;;;;;4976774;28;20611;-75
2023/10/03 04:50:02;;;;;;;34.60;16.63;;;16.30;99.90;;;;;;4976230;28;20379;-76
2023/10/03 04:52:28;;;;;;;30.05;16.15;;;;;;;;;;4976501;28;20073;-76
2023/10/03 04:54:54;;;;;;;33.17;16.42;;;;;;;;;;4975689;28;20061;-76
2023/10/03 04:57:20;;;;;;;33.85;16.98;;;;;;;;;;4975393;28;20416;-76
2023/10/03 04:59:47;;;;;;;37.83;17.63;;;;;;;;;;4975804;28;20065;-76
2023/10/03 05:02:13;;;;;;;32.38;16.30;;;;;;;;;;4975598;28;20525;-76
2023/10/03 05:04:41;;;;;;;36.63;17.80;;;;;;;;;;4976241;28;20652;-79
2023/10/03 05:07:07;;;;;;;34.15;15.88;;;;;;;;;;4976035;28;20050;-75
2023/10/03 05:09:33;;;;;;;35.75;16.98;;;;;;;;;;4975971;28;20610;-76
2023/10/03 05:11:59;;;;;;;31.23;14.82;;;;;;;;;;4975957;28;20386;-78
2023/10/03 05:14:25;;;;;;;33.03;16.30;;;;;;;;;;4976062;28;20046;-76
2023/10/03 05:16:52;;;;;;;29.95;14.43;;;;;;;;;;4976179;28;20131;-78
2023/10/03 05:19:19;;;;;;;28.70;15.43;;;;;;;;;;4975327;28;20054;-77
2023/10/03 05:21:45;;;;;;;33.35;16.05;;;;;;;;;;4974805;28;20050;-76
2023/10/03 05:24:11;;;;;;;32.55;17.17;;;;;;;;;;4974135;28;20055;-74
2023/10/03 05:26:41;;;;;;;29.38;14.32;;;16.80;99.90;;;;;;4973885;28;20069;-79
2023/10/03 05:29:07;;;;;;;28.65;14.77;;;;;;;;;;4974224;28;20042;-77
2023/10/03 05:31:34;;;;;;;27.25;14.05;;;;;;;;;;4974026;28;20065;-75
2023/10/03 05:34:01;;;;;;;31.38;14.98;;;;;;;;;;4990827;28;20058;-78
2023/10/03 05:36:27;;;;;;;34.05;15.38;;;;;;;;;;4975234;28;20050;-78
2023/10/03 05:38:53;;;;;;;32.97;14.80;;;;;;;;;;4975399;28;20100;-80
2023/10/03 05:41:23;;;;;;;28.27;14.68;;;17.10;99.90;;;;;;4975287;28;20497;-78
2023/10/03 05:43:49;;;;;;;33.70;13.90;;;;;;;;;;4975039;28;20042;-78
2023/10/03 05:46:15;;;;;;;27.88;14.80;;;;;;;;;;4975563;28;20054;-79
2023/10/03 05:48:45;;;;;;;29.23;14.30;;;;;;;;;;4975069;28;20046;-77
2023/10/03 05:51:12;;;;;;;31.58;14.50;;;;;;;;;;4976080;28;20065;-78
2023/10/03 05:53:40;;;;;;;30.63;14.52;;;;;;;;;;4974130;28;20046;-77
2023/10/03 05:56:06;;;;;;;28.08;14.25;;;;;;;;;;4973241;28;20042;-77
2023/10/03 05:58:32;;;;;;;32.53;14.15;;;;;;;;;;4972903;28;20987;-80
2023/10/03 06:00:59;;;;;;;25.65;14.35;;;;;;;;;;4972447;28;20757;-78
2023/10/03 06:03:25;;;;;;;28.55;14.20;;;;;;;;;;4972617;28;20489;-76
2023/10/03 06:05:51;;;;;;;30.85;14.00;;;;;;;;;;4973756;28;20092;-75
2023/10/03 06:08:18;;;;;;;27.10;13.20;;;;;;;;;;4974301;28;20158;-78
2023/10/03 06:10:44;;;;;;;30.70;13.80;;;;;;;;;;4974047;28;20509;-79
2023/10/03 06:13:10;;;;;;;29.27;12.88;;;;;;;;;;4973382;28;20163;-76
2023/10/03 06:15:37;;;;;;;31.33;13.63;;;;;;;;;;4972929;28;20058;-77
2023/10/03 06:18:04;;;;;;;28.65;13.60;;;;;;;;;;4988712;28;20070;-75
2023/10/03 06:20:30;;;;;;;31.45;14.27;;;;;;;;;;4972984;28;20088;-79
2023/10/03 06:22:56;;;;;;;28.50;13.25;;;;;;;;;;4972160;28;20132;-77
2023/10/03 06:25:24;;;;;;;27.73;12.38;;;;;;;;;;4972518;28;20050;-79
2023/10/03 06:27:50;;;;;;;29.75;12.52;;;;;;;;;;4971306;28;20054;-75
2023/10/03 06:30:18;;;;;;;24.23;10.98;;;;;;;;;;4971185;28;20062;-77
2023/10/03 06:32:45;;;;;;;28.15;11.02;;;;;;;;;;4974213;28;20129;-76
2023/10/03 06:35:12;;;;;;;23.90;10.23;;;;;;;;;;4987830;28;20508;-75
2023/10/03 06:37:38;;;;;;;22.00;9.45;;;;;;;;;;4972543;28;20124;-75
2023/10/03 06:40:08;;;;;;;16.75;9.30;;;18.00;99.90;;;;;;4940663;28;20081;-76
2023/10/03 06:42:35;;;;;;;20.67;8.63;;;;;;;;;;4945792;28;20071;-82
2023/10/03 06:45:03;;;;;;;18.77;8.63;;;18.00;99.90;;;;;;4951342;28;20058;-79
2023/10/03 06:47:29;;;;;;;20.50;7.47;;;;;;;;;;4950434;28;20209;-75
2023/10/03 06:49:56;;;;;;;22.67;6.90;;;;;;;;;;4941881;28;20054;-74
2023/10/03 06:52:22;;;;;;;17.33;7.78;;;;;;;;;;4935391;28;20050;-75
2023/10/03 06:54:48;;;;;;;15.43;6.10;;;;;;;;;;4932158;28;22068;-78
2023/10/03 06:57:14;;;;;;;19.70;6.82;;;;;;;;;;4942559;28;20196;-78
2023/10/03 06:59:40;;;;;;;19.92;5.65;;;;;;;;;;4941363;28;20094;-77
2023/10/03 07:02:07;;;;;;;14.20;5.65;;;18.20;99.90;;;;;;4943383;28;20057;-77
2023/10/03 07:04:34;;;;;;;14.43;4.88;;;;;;;;;;4941864;28;20059;-76
2023/10/03 07:07:01;;;;;;;14.50;4.82;;;;;;;;;;4937198;28;23107;-75
2023/10/03 07:09:28;;;;;;;14.20;4.85;;;;;;;;;;4950780;28;20084;-76
2023/10/03 07:11:54;;;;;;;10.82;3.67;;;;;;;;;;4964186;28;20066;-77
2023/10/03 07:14:20;;;;;;;13.13;3.88;;;;;;;;;;4989182;28;20246;-76
2023/10/03 07:16:48;;;;;;;17.27;3.67;;;;;;;;;;4972654;28;20053;-76
2023/10/03 07:19:14;;;;;;;14.35;4.97;;;;;;;;;;4972722;28;20054;-78
2023/10/03 07:21:43;;;;;;;14.88;4.28;;;18.10;99.90;;;;;;4972386;28;20054;-75
2023/10/03 07:24:09;;;;;;;19.98;5.50;;;;;;;;;;4972502;28;20046;-74
2023/10/03 07:26:36;;;;;;;12.93;3.47;;;18.30;99.90;;;;;;4972416;28;20153;-77
2023/10/03 07:29:02;;;;;;;9.35;3.00;;;;;;;;;;4972354;28;20046;-76
2023/10/03 07:31:29;;;;;;;10.55;3.45;;;18.30;99.90;;;;;;4972072;28;20046;-75
2023/10/03 07:33:56;;;;;;;15.20;4.10;;;;;;;;;;4972300;28;20157;-77
2023/10/03 07:36:23;;;;;;;15.65;3.83;;;;;;;;;;4972145;28;20061;-75
2023/10/03 07:38:49;;;;;;;16.88;4.50;;;;;;;;;;4972497;28;20064;-76
2023/10/03 07:41:19;;;;;;;13.82;3.88;;;;;;;;;;4973872;28;20055;-75
2023/10/03 07:43:49;;;;;;;12.30;3.83;;;;;;;;;;4973906;28;20058;-76
2023/10/03 07:46:22;;;;;;;9.65;3.42;;;18.10;99.90;;;;;;4973483;28;20529;-80
2023/10/03 07:48:52;;;;;;;11.23;3.25;;;;;;;;;;4973626;28;20054;-79
2023/10/03 07:51:18;;;;;;;12.95;4.20;;;;;;;;;;4973495;28;20516;-76
2023/10/03 07:53:45;;;;;;;12.45;3.50;;;;;;;;;;4973985;28;20046;-77
2023/10/03 07:56:25;;;;;;;9.05;3.00;;;18.00;99.90;;;;;;4973497;28;20054;-77
2023/10/03 07:58:55;;;;;;;12.98;4.10;;;18.00;99.90;;;;;;4973557;28;20149;-78
2023/10/03 08:01:25;;;;;;;11.52;3.65;;;18.10;99.90;;;;;;4974225;28;20145;-77
2023/10/03 08:03:53;;;;;;;14.73;4.05;;;18.10;99.90;;;;;;4976967;28;20782;-75
2023/10/03 08:06:22;;;;;;;12.20;3.63;;;18.00;99.90;;;;;;4976985;28;20092;-79
2023/10/03 08:08:49;;;;;;;10.45;4.53;;;;;;;;;;4977004;28;20062;-78
2023/10/03 08:11:15;;;;;;;14.85;4.50;;;;;;;;;;4977452;28;20093;-76
2023/10/03 08:13:41;;;;;;;18.00;4.70;;;;;;;;;;4976839;28;20104;-75
2023/10/03 08:16:08;;;;;;;14.70;5.30;;;;;;;;;;4976575;28;20145;-75
2023/10/03 08:18:36;;;;;;;12.85;5.20;;;;;;;;;;4975297;28;20065;-73
2023/10/03 08:21:04;;;;;;;14.85;5.82;;;17.30;99.90;;;;;;4975591;28;20054;-73
2023/10/03 08:23:37;;;;;;;15.55;5.15;;;17.20;99.90;;;;;;4975838;28;20869;-79
2023/10/03 08:26:03;;;;;;;14.57;5.05;;;;;;;;;;4975592;28;20085;-76
2023/10/03 08:28:32;;;;;;;12.05;4.80;;;17.30;99.90;;;;;;4975485;28;20497;-79
2023/10/03 08:31:06;;;;;;;17.15;5.65;;;;;;;;;;4975449;28;20046;-77
2023/10/03 08:33:36;;;;;;;15.00;4.80;;;17.10;99.90;;;;;;4976113;28;20061;-77
2023/10/03 08:36:14;;;;;;;13.18;5.20;;;17.10;99.90;;;;;;4976086;28;20058;-73
2023/10/03 08:38:43;;;;;;;10.30;4.47;;;17.10;99.90;;;;;;4976289;28;20054;-74
2023/10/03 08:41:20;;;;;;;13.38;4.32;;;17.20;99.90;;;;;;4975893;28;20465;-77
2023/10/03 08:43:54;;;;;;;8.45;3.70;;;17.30;99.90;;;;;;4977045;28;20042;-76
2023/10/03 08:46:24;;;;;;;13.18;3.85;;;17.40;99.90;;;;;;4977151;28;20050;-75
2023/10/03 08:48:50;;;;;;;12.15;3.47;;;;;;;;;;4975994;28;20046;-74
2023/10/03 08:51:17;;;;;;;14.30;4.15;;;;;;;;;;4977032;28;20093;-75
2023/10/03 08:53:47;;;;;;;14.85;3.58;;;;;;;;;;4976004;28;20124;-72
2023/10/03 08:56:18;;;;;;;11.43;1.85;;;17.20;99.90;;;;;;4976212;28;20085;-75
2023/10/03 08:58:48;;;;;;;8.70;2.10;;;;;;;;;;4976305;28;20051;-77
2023/10/03 09:01:17;;;;;;;10.48;2.22;;;;;;;;;;4992693;28;20108;-75
2023/10/03 09:03:47;;;;;;;7.65;1.75;;;;;;;;;;4970991;28;20556;-76
2023/10/03 09:06:20;;;;;;;9.93;1.50;;;17.00;99.90;;;;;;4976242;28;20737;-81
2023/10/03 09:08:51;;;;;;;9.52;1.48;;;17.10;99.90;;;;;;4976285;28;20141;-77
2023/10/03 09:11:18;;;;;;;8.80;1.20;;;;;;;;;;4976381;28;20696;-77
2023/10/03 09:13:48;;;;;;;9.43;1.17;;;17.20;99.90;;;;;;4975136;28;20050;-69
2023/10/03 09:16:19;;;;;;;6.97;0.73;;;;;;;;;;4975095;28;20057;-73
2023/10/03 09:18:55;;;;;;;6.20;0.83;;;17.30;99.90;;;;;;4975491;28;20118;-73
2023/10/03 09:21:27;;;;;;;7.40;0.80;;;;;;;;;;4975710;28;20085;-75
2023/10/03 09:24:12;;;;;;;8.75;0.63;;;17.50;99.90;;;;;;4975839;28;20133;-75
2023/10/03 09:26:45;;;;;;;4.57;0.60;;;17.60;99.90;;;;;;4975998;28;20081;-77
2023/10/03 09:29:18;;;;;;;4.47;0.60;;;17.70;99.90;;;;;;4991406;28;20050;-75
2023/10/03 09:31:48;;;;;;;7.10;0.45;;;17.80;99.90;;;;;;4992100;28;20046;-75
2023/10/03 09:34:17;;;;;;;5.43;0.60;;;17.80;99.90;;;;;;4969430;28;20129;-75
2023/10/03 09:36:43;;;;;;;8.23;0.47;;;;;;;;;;4975188;28;20060;-76
2023/10/03 09:39:21;;;;;;;8.43;0.63;;;;;;;;;;4975520;28;20556;-77
2023/10/03 09:41:57;;;;;;;3.92;0.22;;;17.40;99.90;;;;;;4991634;28;20049;-75
2023/10/03 09:44:29;;;;;;;4.35;0.20;;;17.20;99.90;;;;;;4975688;28;20873;-75
2023/10/03 09:47:04;;;;;;;4.53;0.55;;;17.00;99.90;;;;;;4974657;28;20064;-81
2023/10/03 09:49:41;;;;;;;10.00;0.35;;;16.80;99.90;;;;;;4975792;28;20088;-78
2023/10/03 09:52:09;;;;;;;6.07;0.32;;;16.70;99.90;;;;;;4974954;28;20837;-75
2023/10/03 09:54:36;;;;;;;4.55;0.55;;;16.60;99.90;;;;;;4975801;28;20069;-81
2023/10/03 09:57:15;;;;;;;3.50;0.10;;;;;;;;;;4975530;28;20497;-79
2023/10/03 09:59:48;;;;;;;4.95;0.20;;;15.70;99.90;;;;;;4975819;28;20100;-79
2023/10/03 10:02:46;;;;;;;4.93;0.10;;;16.40;99.90;;;;;;4969543;28;20046;-77
2023/10/03 10:05:05;;;;;;;1.92;0.10;;;;;;;;;;4974390;28;20062;-75
2023/10/03 10:08:06;;;;;;;1.48;0.10;;;16.30;99.90;;;;;;4974740;28;20050;-78
2023/10/03 10:10:34;;;;;;;4.47;0.35;;;16.30;99.90;;;;;;4990992;28;20062;-76
2023/10/03 10:13:12;;;;;;;2.47;0.20;;;16.30;99.90;;;;;;4990633;28;20046;-79
2023/10/03 10:16:16;;;;;;;5.32;0.35;;;13.70;99.90;;;;;;4974751;28;20058;-75
2023/10/03 10:18:44;;;;;;;2.78;0.10;;;16.40;99.90;;;;;;4975095;28;20481;-79
2023/10/03 10:21:22;;;;;;;2.03;0.10;;;16.50;99.90;;;;;;4974458;28;20062;-76
2023/10/03 10:24:15;;;;;;;3.50;0.10;;;16.40;99.90;;;;;;4974723;28;20046;-79
2023/10/03 10:26:42;;;;;;;5.05;0.20;;;;;;;;;;4985916;28;20046;-76
2023/10/03 10:29:09;;;;;;;5.55;1.05;;;16.30;99.90;;;;;;4990132;28;20349;-78
2023/10/03 10:31:37;;;;;;;3.50;0.20;;;16.30;99.90;;;;;;4973442;28;20050;-78
2023/10/03 10:34:20;;;;;;;3.80;0.43;;;16.20;99.90;;;;;;4973853;28;20056;-77
2023/10/03 10:37:03;;;;;;;2.78;0.20;;;16.20;99.90;;;;;;4974584;28;20788;-75
2023/10/03 10:39:47;;;;;;;;;;;16.20;99.90;;;;;;4973709;28;20241;-75
2023/10/03 10:42:14;;;;;;;5.18;0.20;;;;;;;;;;4972823;28;19937;-74
2023/10/03 10:45:03;;;;;;;3.70;0.10;;;16.00;99.90;;;;;;4972832;28;20133;-72
2023/10/03 10:47:34;;;;;;;6.28;0.45;;;15.90;99.90;;;;;;4969408;28;20137;-74
2023/10/03 10:50:00;;;;;;;5.00;0.40;;;;;;;;;;4972903;28;20953;-80
2023/10/03 10:52:29;;;;;;;3.00;0.30;;;;;;;;;;4972892;28;20046;-77
2023/10/03 10:54:56;;;;;;;4.30;1.00;;;16.10;99.90;;;;;;4974428;28;20648;-75
2023/10/03 10:57:26;;;;;;;2.40;0.20;;;16.20;99.90;;;;;;4974256;28;20112;-76
2023/10/03 10:59:54;;;;;;;3.65;0.10;;;;;;;;;;4974539;28;20052;-76
2023/10/03 11:02:28;;;;;;;5.70;0.20;;;16.30;99.90;;;;;;4974372;28;20802;-74
2023/10/03 11:04:58;;;;;;;2.85;0.20;;;16.30;99.90;;;;;;4969235;28;20054;-78
2023/10/03 11:07:28;;;;;;;6.13;0.30;;;16.20;99.90;;;;;;4974138;28;20109;-73
2023/10/03 11:10:04;;;;;;;9.48;2.30;;;18.40;99.90;;;;;;4973800;28;20061;-77
2023/10/03 11:12:30;;;;;;;5.80;1.98;;;;;;;;;;4974089;28;20057;-75
2023/10/03 11:14:56;;;;;;;4.57;0.40;;;16.60;99.90;;;;;;4974189;28;20050;-80
2023/10/03 11:17:23;;;;;;;3.08;0.52;;;16.80;99.90;;;;;;4973960;28;20154;-73
2023/10/03 11:19:55;;;;;;;5.22;0.40;;;17.00;99.90;;;;;;4966830;28;20058;-77
2023/10/03 11:22:21;;;;;;;4.68;0.30;;;;;;;;;;4972929;28;20929;-74
2023/10/03 11:24:48;;;;;;;4.65;0.50;;;;;;;;;;4972481;28;20615;-77
2023/10/03 11:27:30;;;;;;;4.03;0.40;;;17.20;99.90;;;;;;4973040;28;20108;-72
2023/10/03 11:29:57;;;;;;;5.90;0.73;;;;;;;;;;4972621;28;20133;-75
2023/10/03 11:32:32;;;;;;;2.45;0.30;;;17.40;99.90;;;;;;4989263;28;20058;-75
2023/10/03 11:34:59;;;;;;;3.22;0.20;;;16.90;99.90;;;;;;4968639;28;20046;-81
2023/10/03 11:37:27;;;;;;;3.58;0.20;;;16.80;99.90;;;;;;4993020;28;20061;-77
2023/10/03 11:39:53;;;;;;;5.10;0.40;;;;;;;;;;4972168;28;20654;-82
2023/10/03 11:42:25;;;;;;;3.30;0.25;;;16.40;99.90;;;;;;4978180;28;20057;-78
2023/10/03 11:44:58;;;;;;;2.42;0.30;;;16.60;99.90;;;;;;4977895;28;20054;-74
2023/10/03 11:47:24;;;;;;;5.55;0.85;;;16.30;99.90;;;;;;4978568;28;20046;-83
2023/10/03 11:49:50;;;;;;;17.15;1.95;;;;;;;;;;4978533;28;20592;-77
2023/10/03 11:52:18;;;;;;;6.05;1.05;;;;;;;;;;4978461;28;20050;-79
2023/10/03 11:54:45;;;;;;;13.57;1.13;;;;;;;;;;4978510;28;20058;-80
2023/10/03 11:57:11;;;;;;;6.35;1.10;;;;;;;;;;4993935;28;20077;-81
2023/10/03 11:59:37;;;;;;;6.97;1.10;;;;;;;;;;4976738;28;20108;-75
2023/10/03 12:02:06;;;;;;;5.32;0.82;;;;;;;;;;4976271;28;20050;-77
2023/10/03 12:04:34;;;;;;;6.20;0.85;;;;;;;;;;4992705;28;20053;-76
2023/10/03 12:07:01;;;;;;;5.60;0.85;;;;;;;;;;4975719;28;20130;-79
2023/10/03 12:09:27;;;;;;;3.80;0.63;;;;;;;;;;4975797;28;20866;-82
2023/10/03 12:11:55;;;;;;;5.95;0.60;;;;;;;;;;4975360;28;20054;-73
2023/10/03 12:14:21;;;;;;;8.85;1.08;;;;;;;;;;4976742;28;20073;-78
2023/10/03 12:16:51;;;;;;;3.92;0.90;;;16.30;99.90;;;;;;4976312;28;20050;-76
2023/10/03 12:19:20;;;;;;;3.75;1.00;;;16.70;99.90;;;;;;4975768;28;20053;-73
2023/10/03 12:21:50;;;;;;;6.13;1.17;;;16.40;99.90;;;;;;4975876;28;20062;-76
2023/10/03 12:24:16;;;;;;;6.70;1.13;;;16.20;99.90;;;;;;4975556;28;20062;-79
2023/10/03 12:26:41;;;;;;;7.50;1.02;;;16.50;99.90;;;;;;4959344;28;20080;-73
2023/10/03 12:29:07;;;;;;;4.60;1.05;;;16.40;99.90;;;;;;4975535;28;20644;-77
2023/10/03 12:31:34;;;;;;;7.10;1.25;;;;;;;;;;4975572;28;20165;-74
2023/10/03 12:34:01;;;;;;;11.48;1.90;;;16.50;99.90;;;;;;4992933;28;20058;-81
2023/10/03 12:36:32;;;;;;;6.35;1.50;;;16.00;99.90;;;;;;4992654;28;20154;-74
2023/10/03 12:39:10;;;;;;;13.13;1.57;;;;;;;;;;4975382;28;20052;-78
2023/10/03 12:41:36;;;;;;;10.85;2.00;;;15.70;99.90;;;;;;4975034;28;20771;-74
2023/10/03 12:44:03;;;;;;;9.65;1.48;;;;;;;;;;4976526;28;20050;-74
2023/10/03 12:46:29;;;;;;;7.22;1.15;;;;;;;;;;4977011;28;20062;-73
2023/10/03 12:48:55;;;;;;;7.70;1.80;;;;;;;;;;4975832;28;20061;-78
2023/10/03 12:51:21;;;;;;;6.47;1.83;;;;;;;;;;4976818;28;20050;-75
2023/10/03 12:53:48;;;;;;;6.35;0.88;;;;;;;;;;4976983;28;20057;-79
2023/10/03 12:56:14;;;;;;;5.35;1.58;;;;;;;;;;4977059;28;20776;-76
2023/10/03 12:58:42;;;;;;;7.10;1.50;;;;;;;;;;4976029;28;20061;-76
2023/10/03 13:01:08;;;;;;;4.10;1.10;;;;;;;;;;4976380;28;20051;-78
2023/10/03 13:03:34;;;;;;;3.05;0.75;;;;;;;;;;4976731;28;20175;-75
2023/10/03 13:06:00;;;;;;;7.70;1.50;;;;;;;;;;4976386;28;20054;-76
2023/10/03 13:08:27;;;;;;;6.63;1.35;;;15.10;99.90;;;;;;4976265;28;20138;-78
2023/10/03 13:11:05;;;;;;;6.55;1.15;;;;;;;;;;4975362;28;20065;-76
2023/10/03 13:13:32;;;;;;;8.52;1.23;;;;;;;;;;4991764;28;20047;-80
2023/10/03 13:15:58;;;;;;;6.18;0.88;;;;;;;;;;4975879;28;20799;-76
2023/10/03 13:18:24;;;;;;;9.20;1.30;;;;;;;;;;4975824;28;20094;-73
2023/10/03 13:20:52;;;;;;;7.05;1.50;;;;;;;;;;4975961;28;20043;-74
2023/10/03 13:23:19;;;;;;;5.00;0.80;;;;;;;;;;4975630;28;20053;-77
2023/10/03 13:25:45;;;;;;;7.00;1.23;;;;;;;;;;4975560;28;20061;-77
2023/10/03 13:28:11;;;;;;;8.02;1.08;;;;;;;;;;4989154;28;20460;-75
2023/10/03 13:30:37;;;;;;;8.82;1.48;;;16.10;99.90;;;;;;4974468;28;20081;-77
2023/10/03 13:33:04;;;;;;;6.47;1.10;;;16.00;99.90;;;;;;4973989;28;20055;-82
2023/10/03 13:35:30;;;;;;;9.10;1.45;;;;;;;;;;4991986;28;20061;-76
2023/10/03 13:37:57;;;;;;;7.88;1.85;;;;;;;;;;4975162;28;20046;-74
2023/10/03 13:40:23;;;;;;;5.57;0.98;;;;;;;;;;4990585;28;20560;-76
2023/10/03 13:42:49;;;;;;;8.40;1.33;;;;;;;;;;4969485;28;20050;-75
2023/10/03 13:45:16;;;;;;;6.93;1.23;;;16.40;99.90;;;;;;4974575;28;20086;-76
2023/10/03 13:47:44;;;;;;;4.35;0.75;;;;;;;;;;4991751;28;20042;-77
2023/10/03 13:50:12;;;;;;;9.32;1.23;;;16.30;99.90;;;;;;4991827;28;20101;-74
2023/10/03 13:52:38;;;;;;;12.60;1.23;;;;;;;;;;4974747;28;20153;-79
2023/10/03 13:55:09;;;;;;;16.25;2.33;;;16.10;99.90;;;;;;4973105;28;20053;-75
2023/10/03 13:57:35;;;;;;;9.15;1.27;;;16.00;99.90;;;;;;4990680;28;20062;-78
2023/10/03 14:00:06;;;;;;;7.72;1.05;;;;;;;;;;4990493;28;20046;-77